sensor_id;sensor_type;location;lat;lon;timestamp;pressure;altitude;pressure_sealevel;temperature;humidity
48553;BME280;34335;51.566;6.994;2023-07-20T00:00:44;100752.13;;;17.06;100.00
48553;BME280;34335;51.566;6.994;2023-07-20T00:03:14;100756.34;;;17.12;100.00
48553;BME280;34335;51.566;6.994;2023-07-20T00:05:44;100749.91;;;17.22;100.00
48553;BME280;34335;51.566;6.994;2023-07-20T00:08:10;100751.25;;;17.06;100.00
48553;BME280;34335;51.566;6.994;2023-07-20T00:10:35;100747.13;;;16.97;100.00
48553;BME280;34335;51.566;6.994;2023-07-20T00:13:00;100749.50;;;17.05;100.00
48553;BME280;34335;51.566;6.994;2023-07-20T00:15:25;100750.06;;;16.83;100.00
48553;BME280;34335;51.566;6.994;2023-07-20T00:17:51;100749.00;;;16.90;100.00
48553;BME280;34335;51.566;6.994;2023-07-20T00:20:16;100736.78;;;16.89;100.00
48553;BME280;34335;51.566;6.994;2023-07-20T00:22:42;100739.41;;;16.89;100.00
48553;BME280;34335;51.566;6.994;2023-07-20T00:25:08;100735.41;;;17.07;100.00
48553;BME280;34335;51.566;6.994;2023-07-20T00:27:33;100733.59;;;17.11;100.00
48553;BME280;34335;51.566;6.994;2023-07-20T00:29:59;100737.25;;;17.05;100.00
48553;BME280;34335;51.566;6.994;2023-07-20T00:32:24;100734.53;;;17.08;100.00
48553;BME280;34335;51.566;6.994;2023-07-20T00:34:49;100730.88;;;17.14;100.00
48553;BME280;34335;51.566;6.994;2023-07-20T00:37:15;100728.16;;;17.17;100.00
48553;BME280;34335;51.566;6.994;2023-07-20T00:39:40;100723.81;;;17.16;100.00
48553;BME280;34335;51.566;6.994;2023-07-20T00:42:05;100725.59;;;17.16;100.00
48553;BME280;34335;51.566;6.994;2023-07-20T00:44:31;100735.28;;;17.13;100.00
48553;BME280;34335;51.566;6.994;2023-07-20T00:46:56;100728.25;;;17.14;100.00
48553;BME280;34335;51.566;6.994;2023-07-20T00:49:22;100736.34;;;17.06;100.00
48553;BME280;34335;51.566;6.994;2023-07-20T00:51:49;100725.84;;;17.06;100.00
48553;BME280;34335;51.566;6.994;2023-07-20T00:54:15;100729.19;;;17.11;100.00
48553;BME280;34335;51.566;6.994;2023-07-20T00:56:41;100730.16;;;17.09;100.00
48553;BME280;34335;51.566;6.994;2023-07-20T00:59:06;100724.81;;;17.12;100.00
48553;BME280;34335;51.566;6.994;2023-07-20T01:01:32;100735.28;;;17.13;100.00
48553;BME280;34335;51.566;6.994;2023-07-20T01:03:58;100722.22;;;17.10;100.00
48553;BME280;34335;51.566;6.994;2023-07-20T01:14:16;100732.16;;;16.99;100.00
48553;BME280;34335;51.566;6.994;2023-07-20T01:16:41;100730.22;;;17.06;100.00
48553;BME280;34335;51.566;6.994;2023-07-20T01:19:07;100723.22;;;17.06;100.00
48553;BME280;34335;51.566;6.994;2023-07-20T01:21:57;100716.22;;;17.05;100.00
48553;BME280;34335;51.566;6.994;2023-07-20T01:30:03;100720.75;;;17.00;100.00
48553;BME280;34335;51.566;6.994;2023-07-20T01:32:33;100719.13;;;16.96;100.00
48553;BME280;34335;51.566;6.994;2023-07-20T01:35:01;100715.59;;;16.97;100.00
48553;BME280;34335;51.566;6.994;2023-07-20T01:37:29;100720.34;;;16.81;100.00
48553;BME280;34335;51.566;6.994;2023-07-20T01:39:55;100720.25;;;16.84;100.00
48553;BME280;34335;51.566;6.994;2023-07-20T01:42:24;100712.47;;;16.81;100.00
48553;BME280;34335;51.566;6.994;2023-07-20T01:44:52;100708.97;;;16.80;100.00
48553;BME280;34335;51.566;6.994;2023-07-20T01:47:18;100712.03;;;16.65;100.00
48553;BME280;34335;51.566;6.994;2023-07-20T01:49:44;100713.16;;;16.55;100.00
48553;BME280;34335;51.566;6.994;2023-07-20T01:52:09;100705.59;;;16.42;100.00
48553;BME280;34335;51.566;6.994;2023-07-20T01:54:34;100705.56;;;16.44;100.00
48553;BME280;34335;51.566;6.994;2023-07-20T01:57:00;100703.84;;;16.41;100.00
48553;BME280;34335;51.566;6.994;2023-07-20T01:59:25;100711.50;;;16.50;100.00
48553;BME280;34335;51.566;6.994;2023-07-20T02:01:50;100711.50;;;16.50;100.00
48553;BME280;34335;51.566;6.994;2023-07-20T02:04:15;100707.84;;;16.56;100.00
48553;BME280;34335;51.566;6.994;2023-07-20T02:06:41;100715.00;;;16.51;100.00
48553;BME280;34335;51.566;6.994;2023-07-20T02:09:06;100715.91;;;16.50;100.00
48553;BME280;34335;51.566;6.994;2023-07-20T02:11:31;100716.97;;;16.43;100.00
48553;BME280;34335;51.566;6.994;2023-07-20T02:13:56;100711.66;;;16.44;100.00
48553;BME280;34335;51.566;6.994;2023-07-20T02:16:22;100717.38;;;16.26;100.00
48553;BME280;34335;51.566;6.994;2023-07-20T02:18:47;100719.66;;;16.40;100.00
48553;BME280;34335;51.566;6.994;2023-07-20T02:21:12;100727.94;;;16.23;100.00
48553;BME280;34335;51.566;6.994;2023-07-20T02:23:38;100725.63;;;16.09;100.00
48553;BME280;34335;51.566;6.994;2023-07-20T02:26:03;100726.59;;;16.06;100.00
48553;BME280;34335;51.566;6.994;2023-07-20T02:28:29;100723.00;;;16.10;100.00
48553;BME280;34335;51.566;6.994;2023-07-20T02:30:54;100734.00;;;16.25;100.00
48553;BME280;34335;51.566;6.994;2023-07-20T02:33:19;100726.06;;;16.28;100.00
48553;BME280;34335;51.566;6.994;2023-07-20T02:35:45;100725.41;;;16.19;100.00
48553;BME280;34335;51.566;6.994;2023-07-20T02:38:11;100730.16;;;16.02;100.00
48553;BME280;34335;51.566;6.994;2023-07-20T02:40:36;100726.13;;;15.88;100.00
48553;BME280;34335;51.566;6.994;2023-07-20T02:43:01;100711.56;;;15.73;100.00
48553;BME280;34335;51.566;6.994;2023-07-20T02:45:27;100717.66;;;15.74;100.00
48553;BME280;34335;51.566;6.994;2023-07-20T02:47:52;100717.59;;;15.77;100.00
48553;BME280;34335;51.566;6.994;2023-07-20T02:50:17;100714.06;;;15.78;100.00
48553;BME280;34335;51.566;6.994;2023-07-20T02:52:43;100723.88;;;15.70;100.00
48553;BME280;34335;51.566;6.994;2023-07-20T02:55:09;100731.53;;;15.79;100.00
48553;BME280;34335;51.566;6.994;2023-07-20T02:57:34;100727.13;;;15.81;100.00
48553;BME280;34335;51.566;6.994;2023-07-20T02:59:59;100730.06;;;15.67;100.00
48553;BME280;34335;51.566;6.994;2023-07-20T03:02:25;100739.66;;;15.67;100.00
48553;BME280;34335;51.566;6.994;2023-07-20T03:04:50;100742.09;;;15.76;100.00
48553;BME280;34335;51.566;6.994;2023-07-20T03:07:15;100745.59;;;15.77;100.00
48553;BME280;34335;51.566;6.994;2023-07-20T03:09:40;100733.94;;;15.92;100.00
48553;BME280;34335;51.566;6.994;2023-07-20T03:12:06;100734.84;;;15.89;100.00
48553;BME280;34335;51.566;6.994;2023-07-20T03:14:32;100730.25;;;15.99;100.00
48553;BME280;34335;51.566;6.994;2023-07-20T03:16:57;100739.75;;;16.04;100.00
48553;BME280;34335;51.566;6.994;2023-07-20T03:19:22;100740.97;;;15.88;100.00
48553;BME280;34335;51.566;6.994;2023-07-20T03:21:48;100737.63;;;15.80;100.00
48553;BME280;34335;51.566;6.994;2023-07-20T03:24:13;100739.41;;;15.78;100.00
48553;BME280;34335;51.566;6.994;2023-07-20T03:26:39;100749.88;;;15.79;100.00
48553;BME280;34335;51.566;6.994;2023-07-20T03:29:04;100742.91;;;15.78;100.00
48553;BME280;34335;51.566;6.994;2023-07-20T03:31:30;100750.66;;;15.86;100.00
48553;BME280;34335;51.566;6.994;2023-07-20T03:33:55;100754.28;;;15.77;100.00
48553;BME280;34335;51.566;6.994;2023-07-20T03:36:20;100751.72;;;15.76;100.00
48553;BME280;34335;51.566;6.994;2023-07-20T03:38:47;100763.84;;;15.81;100.00
48553;BME280;34335;51.566;6.994;2023-07-20T03:41:12;100763.91;;;15.78;100.00
48553;BME280;34335;51.566;6.994;2023-07-20T03:43:37;100763.22;;;15.68;100.00
48553;BME280;34335;51.566;6.994;2023-07-20T03:46:03;100764.06;;;15.70;100.00
48553;BME280;34335;51.566;6.994;2023-07-20T03:48:32;100762.94;;;15.84;100.00
48553;BME280;34335;51.566;6.994;2023-07-20T03:50:57;100772.44;;;15.88;100.00
48553;BME280;34335;51.566;6.994;2023-07-20T03:53:23;100777.59;;;15.93;100.00
48553;BME280;34335;51.566;6.994;2023-07-20T03:55:49;100770.97;;;15.73;100.00
48553;BME280;34335;51.566;6.994;2023-07-20T03:58:15;100776.22;;;15.74;100.00
48553;BME280;34335;51.566;6.994;2023-07-20T04:00:49;100769.34;;;15.69;100.00
48553;BME280;34335;51.566;6.994;2023-07-20T04:03:21;100778.09;;;15.68;100.00
48553;BME280;34335;51.566;6.994;2023-07-20T04:05:47;100766.66;;;15.72;100.00
48553;BME280;34335;51.566;6.994;2023-07-20T04:08:13;100772.78;;;15.71;100.00
48553;BME280;34335;51.566;6.994;2023-07-20T04:10:38;100781.75;;;15.59;100.00
48553;BME280;34335;51.566;6.994;2023-07-20T04:13:04;100775.72;;;15.57;100.00
48553;BME280;34335;51.566;6.994;2023-07-20T04:15:30;100772.00;;;15.67;100.00
48553;BME280;34335;51.566;6.994;2023-07-20T04:17:56;100774.22;;;15.87;100.00
48553;BME280;34335;51.566;6.994;2023-07-20T04:20:22;100770.03;;;15.77;100.00
48553;BME280;34335;51.566;6.994;2023-07-20T04:22:48;100767.56;;;15.71;100.00
48553;BME280;34335;51.566;6.994;2023-07-20T04:25:13;100772.00;;;15.66;100.00
48553;BME280;34335;51.566;6.994;2023-07-20T04:27:38;100777.88;;;15.35;100.00
48553;BME280;34335;51.566;6.994;2023-07-20T04:30:07;100775.00;;;15.47;100.00
48553;BME280;34335;51.566;6.994;2023-07-20T04:32:32;100777.53;;;15.52;100.00
48553;BME280;34335;51.566;6.994;2023-07-20T04:34:59;100780.09;;;15.55;100.00
48553;BME280;34335;51.566;6.994;2023-07-20T04:37:24;100786.91;;;15.64;100.00
48553;BME280;34335;51.566;6.994;2023-07-20T04:39:49;100781.47;;;15.73;100.00
48553;BME280;34335;51.566;6.994;2023-07-20T04:42:14;100791.03;;;15.76;100.00
48553;BME280;34335;51.566;6.994;2023-07-20T04:44:40;100791.19;;;15.68;100.00
48553;BME280;34335;51.566;6.994;2023-07-20T04:47:06;100791.91;;;15.76;100.00
48553;BME280;34335;51.566;6.994;2023-07-20T04:49:31;100787.75;;;15.66;100.00
48553;BME280;34335;51.566;6.994;2023-07-20T04:51:56;100797.38;;;15.64;100.00
48553;BME280;34335;51.566;6.994;2023-07-20T04:54:22;100797.25;;;15.71;100.00
48553;BME280;34335;51.566;6.994;2023-07-20T04:56:47;100795.50;;;15.72;100.00
48553;BME280;34335;51.566;6.994;2023-07-20T04:59:12;100801.59;;;15.72;100.00
48553;BME280;34335;51.566;6.994;2023-07-20T05:01:38;100808.72;;;15.66;100.00
48553;BME280;34335;51.566;6.994;2023-07-20T05:04:03;100814.97;;;15.58;100.00
48553;BME280;34335;51.566;6.994;2023-07-20T05:06:29;100807.72;;;15.71;100.00
48553;BME280;34335;51.566;6.994;2023-07-20T05:08:54;100821.44;;;15.40;100.00
48553;BME280;34335;51.566;6.994;2023-07-20T05:11:19;100812.09;;;15.25;100.00
48553;BME280;34335;51.566;6.994;2023-07-20T05:13:45;100817.06;;;15.41;100.00
48553;BME280;34335;51.566;6.994;2023-07-20T05:16:10;100820.41;;;15.49;100.00
48553;BME280;34335;51.566;6.994;2023-07-20T05:18:35;100822.41;;;15.35;100.00
48553;BME280;34335;51.566;6.994;2023-07-20T05:21:00;100822.38;;;15.38;100.00
48553;BME280;34335;51.566;6.994;2023-07-20T05:23:26;100820.28;;;15.55;100.00
48553;BME280;34335;51.566;6.994;2023-07-20T05:25:58;100820.72;;;15.34;100.00
48553;BME280;34335;51.566;6.994;2023-07-20T05:28:25;100825.81;;;15.40;100.00
48553;BME280;34335;51.566;6.994;2023-07-20T05:30:51;100828.00;;;15.63;100.00
48553;BME280;34335;51.566;6.994;2023-07-20T05:33:18;100822.50;;;15.76;100.00
48553;BME280;34335;51.566;6.994;2023-07-20T05:35:43;100823.22;;;15.82;100.00
48553;BME280;34335;51.566;6.994;2023-07-20T05:38:08;100821.53;;;15.81;100.00
48553;BME280;34335;51.566;6.994;2023-07-20T05:40:37;100821.56;;;15.78;100.00
48553;BME280;34335;51.566;6.994;2023-07-20T05:43:02;100827.72;;;15.77;100.00
48553;BME280;34335;51.566;6.994;2023-07-20T05:45:28;100824.94;;;15.83;100.00
48553;BME280;34335;51.566;6.994;2023-07-20T05:47:53;100826.63;;;15.89;100.00
48553;BME280;34335;51.566;6.994;2023-07-20T05:50:18;100823.50;;;16.12;100.00
48553;BME280;34335;51.566;6.994;2023-07-20T05:52:44;100836.56;;;16.15;100.00
48553;BME280;34335;51.566;6.994;2023-07-20T05:55:09;100836.16;;;15.93;100.00
48553;BME280;34335;51.566;6.994;2023-07-20T05:57:34;100833.28;;;16.04;100.00
48553;BME280;34335;51.566;6.994;2023-07-20T06:00:00;100832.34;;;16.08;100.00
48553;BME280;34335;51.566;6.994;2023-07-20T06:02:26;100833.94;;;16.15;100.00
48553;BME280;34335;51.566;6.994;2023-07-20T06:04:51;100832.94;;;16.21;100.00
48553;BME280;34335;51.566;6.994;2023-07-20T06:07:16;100834.25;;;16.41;100.00
48553;BME280;34335;51.566;6.994;2023-07-20T06:09:41;100840.91;;;16.16;100.00
48553;BME280;34335;51.566;6.994;2023-07-20T06:12:07;100851.72;;;16.40;100.00
48553;BME280;34335;51.566;6.994;2023-07-20T06:14:33;100845.91;;;16.29;100.00
48553;BME280;34335;51.566;6.994;2023-07-20T06:16:58;100846.16;;;16.16;100.00
48553;BME280;34335;51.566;6.994;2023-07-20T06:19:24;100863.84;;;16.47;100.00
48553;BME280;34335;51.566;6.994;2023-07-20T06:21:49;100851.84;;;16.73;100.00
48553;BME280;34335;51.566;6.994;2023-07-20T06:24:15;100855.00;;;16.88;100.00
48553;BME280;34335;51.566;6.994;2023-07-20T06:26:40;100861.06;;;16.91;100.00
48553;BME280;34335;51.566;6.994;2023-07-20T06:29:06;100861.47;;;16.74;100.00
48553;BME280;34335;51.566;6.994;2023-07-20T06:31:32;100865.34;;;16.95;100.00
48553;BME280;34335;51.566;6.994;2023-07-20T06:33:58;100860.56;;;17.11;100.00
48553;BME280;34335;51.566;6.994;2023-07-20T06:36:23;100859.47;;;17.20;100.00
48553;BME280;34335;51.566;6.994;2023-07-20T06:38:48;100848.63;;;17.33;100.00
48553;BME280;34335;51.566;6.994;2023-07-20T06:41:14;100861.63;;;17.37;100.00
48553;BME280;34335;51.566;6.994;2023-07-20T06:43:39;100862.78;;;17.60;100.00
48553;BME280;34335;51.566;6.994;2023-07-20T06:46:04;100867.88;;;17.66;100.00
48553;BME280;34335;51.566;6.994;2023-07-20T06:48:29;100862.28;;;17.79;100.00
48553;BME280;34335;51.566;6.994;2023-07-20T06:50:55;100856.94;;;17.82;100.00
48553;BME280;34335;51.566;6.994;2023-07-20T06:53:20;100858.38;;;17.92;100.00
48553;BME280;34335;51.566;6.994;2023-07-20T06:55:45;100860.72;;;18.03;100.00
48553;BME280;34335;51.566;6.994;2023-07-20T06:58:11;100862.59;;;17.68;100.00
48553;BME280;34335;51.566;6.994;2023-07-20T07:00:36;100863.72;;;17.89;100.00
48553;BME280;34335;51.566;6.994;2023-07-20T07:03:01;100867.44;;;18.13;100.00
48553;BME280;34335;51.566;6.994;2023-07-20T07:05:27;100863.41;;;18.31;100.00
48553;BME280;34335;51.566;6.994;2023-07-20T07:07:53;100861.41;;;18.66;100.00
48553;BME280;34335;51.566;6.994;2023-07-20T07:10:18;100869.72;;;18.81;100.00
48553;BME280;34335;51.566;6.994;2023-07-20T07:12:43;100878.81;;;18.14;100.00
48553;BME280;34335;51.566;6.994;2023-07-20T07:15:09;100882.69;;;18.60;100.00
48553;BME280;34335;51.566;6.994;2023-07-20T07:17:36;100887.22;;;17.97;100.00
48553;BME280;34335;51.566;6.994;2023-07-20T07:20:01;100883.56;;;18.88;100.00
48553;BME280;34335;51.566;6.994;2023-07-20T07:22:27;100880.16;;;18.84;100.00
48553;BME280;34335;51.566;6.994;2023-07-20T07:24:52;100881.44;;;19.26;100.00
48553;BME280;34335;51.566;6.994;2023-07-20T07:27:17;100886.44;;;19.34;100.00
48553;BME280;34335;51.566;6.994;2023-07-20T07:29:43;100882.31;;;19.26;100.00
48553;BME280;34335;51.566;6.994;2023-07-20T07:32:12;100888.53;;;19.49;100.00
48553;BME280;34335;51.566;6.994;2023-07-20T07:34:37;100892.16;;;18.94;100.00
48553;BME280;34335;51.566;6.994;2023-07-20T07:37:04;100895.31;;;19.06;100.00
48553;BME280;34335;51.566;6.994;2023-07-20T07:39:30;100895.66;;;19.22;100.00
48553;BME280;34335;51.566;6.994;2023-07-20T07:41:55;100900.59;;;19.31;100.00
48553;BME280;34335;51.566;6.994;2023-07-20T07:44:21;100899.78;;;20.05;100.00
48553;BME280;34335;51.566;6.994;2023-07-20T07:46:46;100902.06;;;20.14;100.00
48553;BME280;34335;51.566;6.994;2023-07-20T07:49:11;100906.81;;;20.04;100.00
48553;BME280;34335;51.566;6.994;2023-07-20T07:51:37;100899.06;;;20.23;100.00
48553;BME280;34335;51.566;6.994;2023-07-20T07:54:02;100897.44;;;20.65;100.00
48553;BME280;34335;51.566;6.994;2023-07-20T07:56:27;100895.47;;;20.48;100.00
48553;BME280;34335;51.566;6.994;2023-07-20T07:58:53;100903.66;;;20.64;100.00
48553;BME280;34335;51.566;6.994;2023-07-20T08:01:18;100907.88;;;20.68;100.00
48553;BME280;34335;51.566;6.994;2023-07-20T08:03:47;100911.47;;;20.90;100.00
48553;BME280;34335;51.566;6.994;2023-07-20T08:06:15;100904.69;;;21.05;100.00
48553;BME280;34335;51.566;6.994;2023-07-20T08:08:41;100908.59;;;21.16;100.00
48553;BME280;34335;51.566;6.994;2023-07-20T08:11:07;100911.69;;;21.26;100.00
48553;BME280;34335;51.566;6.994;2023-07-20T08:13:32;100922.28;;;21.26;100.00
48553;BME280;34335;51.566;6.994;2023-07-20T08:15:58;100925.34;;;20.73;100.00
48553;BME280;34335;51.566;6.994;2023-07-20T08:18:24;100931.06;;;20.38;100.00
48553;BME280;34335;51.566;6.994;2023-07-20T08:20:50;100938.97;;;20.16;100.00
48553;BME280;34335;51.566;6.994;2023-07-20T08:23:15;100933.34;;;20.25;100.00
48553;BME280;34335;51.566;6.994;2023-07-20T08:25:41;100925.34;;;20.50;100.00
48553;BME280;34335;51.566;6.994;2023-07-20T08:28:14;100929.06;;;21.11;100.00
48553;BME280;34335;51.566;6.994;2023-07-20T08:30:44;100919.44;;;21.52;100.00
48553;BME280;34335;51.566;6.994;2023-07-20T08:33:13;100929.78;;;20.72;100.00
48553;BME280;34335;51.566;6.994;2023-07-20T08:35:38;100928.50;;;21.05;100.00
48553;BME280;34335;51.566;6.994;2023-07-20T08:38:04;100932.78;;;21.07;100.00
48553;BME280;34335;51.566;6.994;2023-07-20T08:40:31;100931.09;;;21.27;100.00
48553;BME280;34335;51.566;6.994;2023-07-20T08:42:58;100933.44;;;20.92;100.00
48553;BME280;34335;51.566;6.994;2023-07-20T08:45:26;100937.22;;;21.27;100.00
48553;BME280;34335;51.566;6.994;2023-07-20T08:47:52;100936.69;;;21.19;100.00
48553;BME280;34335;51.566;6.994;2023-07-20T08:50:19;100937.97;;;21.31;100.00
48553;BME280;34335;51.566;6.994;2023-07-20T08:52:46;100937.13;;;22.12;100.00
48553;BME280;34335;51.566;6.994;2023-07-20T08:55:12;100933.78;;;22.08;100.00
48553;BME280;34335;51.566;6.994;2023-07-20T08:57:38;100934.19;;;21.59;100.00
48553;BME280;34335;51.566;6.994;2023-07-20T09:00:07;100941.97;;;20.76;100.00
48553;BME280;34335;51.566;6.994;2023-07-20T09:02:39;100948.78;;;20.12;100.00
48553;BME280;34335;51.566;6.994;2023-07-20T09:05:07;100945.88;;;21.10;100.00
48553;BME280;34335;51.566;6.994;2023-07-20T09:07:33;100942.84;;;20.53;98.40
48553;BME280;34335;51.566;6.994;2023-07-20T09:10:00;100938.84;;;20.65;99.41
48553;BME280;34335;51.566;6.994;2023-07-20T09:12:31;100939.69;;;21.53;100.00
48553;BME280;34335;51.566;6.994;2023-07-20T09:14:57;100936.06;;;21.76;89.95
48553;BME280;34335;51.566;6.994;2023-07-20T09:17:25;100935.53;;;22.07;88.45
48553;BME280;34335;51.566;6.994;2023-07-20T09:19:51;100941.13;;;22.01;96.04
48553;BME280;34335;51.566;6.994;2023-07-20T09:22:16;100926.47;;;22.13;92.09
48553;BME280;34335;51.566;6.994;2023-07-20T09:24:42;100932.22;;;22.23;86.67
48553;BME280;34335;51.566;6.994;2023-07-20T09:27:08;100931.91;;;22.67;91.15
48553;BME280;34335;51.566;6.994;2023-07-20T09:29:34;100932.63;;;22.71;86.02
48553;BME280;34335;51.566;6.994;2023-07-20T09:32:04;100928.53;;;22.83;84.54
48553;BME280;34335;51.566;6.994;2023-07-20T09:34:30;100937.88;;;23.44;89.56
48553;BME280;34335;51.566;6.994;2023-07-20T09:36:59;100938.22;;;23.72;86.02
48553;BME280;34335;51.566;6.994;2023-07-20T09:39:25;100936.50;;;22.64;84.60
48553;BME280;34335;51.566;6.994;2023-07-20T09:41:51;100940.31;;;23.49;86.58
48553;BME280;34335;51.566;6.994;2023-07-20T09:44:17;100933.50;;;22.71;85.41
48553;BME280;34335;51.566;6.994;2023-07-20T09:46:44;100938.91;;;23.42;82.76
48553;BME280;34335;51.566;6.994;2023-07-20T09:49:10;100941.00;;;23.53;78.08
48553;BME280;34335;51.566;6.994;2023-07-20T09:51:36;100932.50;;;23.28;75.24
48553;BME280;34335;51.566;6.994;2023-07-20T09:54:03;100935.53;;;24.07;78.59
48553;BME280;34335;51.566;6.994;2023-07-20T09:56:30;100933.91;;;23.87;75.26
48553;BME280;34335;51.566;6.994;2023-07-20T09:58:56;100936.41;;;23.21;66.82
48553;BME280;34335;51.566;6.994;2023-07-20T10:01:22;100930.72;;;22.75;69.75
48553;BME280;34335;51.566;6.994;2023-07-20T10:03:49;100939.97;;;23.55;78.01
48553;BME280;34335;51.566;6.994;2023-07-20T10:06:20;100928.97;;;24.30;72.88
48553;BME280;34335;51.566;6.994;2023-07-20T10:08:49;100928.53;;;24.38;69.50
48553;BME280;34335;51.566;6.994;2023-07-20T10:11:17;100931.06;;;23.56;73.86
48553;BME280;34335;51.566;6.994;2023-07-20T10:13:44;100927.69;;;23.70;76.23
48553;BME280;34335;51.566;6.994;2023-07-20T10:16:31;100922.78;;;23.10;70.92
48553;BME280;34335;51.566;6.994;2023-07-20T10:19:05;100921.44;;;24.70;73.60
48553;BME280;34335;51.566;6.994;2023-07-20T10:21:34;100927.03;;;25.27;68.78
48553;BME280;34335;51.566;6.994;2023-07-20T10:24:01;100927.94;;;24.49;64.23
48553;BME280;34335;51.566;6.994;2023-07-20T10:26:27;100924.03;;;24.86;68.90
48553;BME280;34335;51.566;6.994;2023-07-20T10:28:53;100924.84;;;24.56;64.46
48553;BME280;34335;51.566;6.994;2023-07-20T10:31:19;100935.75;;;23.69;63.91
48553;BME280;34335;51.566;6.994;2023-07-20T10:33:45;100934.13;;;22.77;63.01
48553;BME280;34335;51.566;6.994;2023-07-20T10:36:11;100936.25;;;22.87;65.89
48553;BME280;34335;51.566;6.994;2023-07-20T10:38:56;100931.72;;;23.95;68.08
48553;BME280;34335;51.566;6.994;2023-07-20T10:41:32;100922.19;;;24.56;66.68
48553;BME280;34335;51.566;6.994;2023-07-20T10:44:01;100915.09;;;25.03;66.67
48553;BME280;34335;51.566;6.994;2023-07-20T10:49:00;100922.72;;;24.31;63.97
48553;BME280;34335;51.566;6.994;2023-07-20T10:51:27;100906.06;;;25.06;66.86
48553;BME280;34335;51.566;6.994;2023-07-20T10:53:52;100909.59;;;24.44;61.02
48553;BME280;34335;51.566;6.994;2023-07-20T10:56:21;100917.22;;;23.85;61.39
48553;BME280;34335;51.566;6.994;2023-07-20T10:58:47;100918.22;;;24.16;61.02
48553;BME280;34335;51.566;6.994;2023-07-20T11:01:18;100910.03;;;24.99;60.50
48553;BME280;34335;51.566;6.994;2023-07-20T11:03:49;100913.00;;;25.39;54.83
48553;BME280;34335;51.566;6.994;2023-07-20T11:09:13;100901.75;;;25.19;57.86
48553;BME280;34335;51.566;6.994;2023-07-20T11:11:48;100904.69;;;24.20;61.20
48553;BME280;34335;51.566;6.994;2023-07-20T11:14:23;100894.22;;;24.49;57.68
48553;BME280;34335;51.566;6.994;2023-07-20T11:16:50;100894.50;;;24.13;57.30
48553;BME280;34335;51.566;6.994;2023-07-20T11:19:21;100896.03;;;25.26;59.45
48553;BME280;34335;51.566;6.994;2023-07-20T11:21:58;100888.97;;;24.96;54.82
48553;BME280;34335;51.566;6.994;2023-07-20T11:24:24;100884.84;;;25.20;54.97
48553;BME280;34335;51.566;6.994;2023-07-20T11:26:50;100888.31;;;25.66;56.14
48553;BME280;34335;51.566;6.994;2023-07-20T11:29:18;100879.00;;;25.88;59.00
48553;BME280;34335;51.566;6.994;2023-07-20T11:31:44;100886.41;;;25.82;57.51
48553;BME280;34335;51.566;6.994;2023-07-20T11:34:11;100886.66;;;24.57;49.46
48553;BME280;34335;51.566;6.994;2023-07-20T11:36:39;100885.75;;;25.50;52.08
48553;BME280;34335;51.566;6.994;2023-07-20T11:39:07;100885.38;;;26.14;54.00
48553;BME280;34335;51.566;6.994;2023-07-20T11:41:32;100873.09;;;26.81;60.08
48553;BME280;34335;51.566;6.994;2023-07-20T11:43:58;100878.19;;;27.11;58.43
48553;BME280;34335;51.566;6.994;2023-07-20T11:46:23;100869.00;;;24.72;52.25
48553;BME280;34335;51.566;6.994;2023-07-20T11:48:49;100876.81;;;24.76;58.32
48553;BME280;34335;51.566;6.994;2023-07-20T11:51:15;100873.03;;;25.84;56.31
48553;BME280;34335;51.566;6.994;2023-07-20T11:53:42;100879.75;;;26.04;56.41
48553;BME280;34335;51.566;6.994;2023-07-20T11:56:07;100877.94;;;26.19;56.89
48553;BME280;34335;51.566;6.994;2023-07-20T11:58:33;100881.44;;;25.33;50.04
48553;BME280;34335;51.566;6.994;2023-07-20T12:00:58;100871.59;;;25.78;54.37
48553;BME280;34335;51.566;6.994;2023-07-20T12:03:23;100871.75;;;26.73;56.25
48553;BME280;34335;51.566;6.994;2023-07-20T12:05:49;100870.16;;;26.16;51.90
48553;BME280;34335;51.566;6.994;2023-07-20T12:08:15;100869.09;;;27.01;48.76
48553;BME280;34335;51.566;6.994;2023-07-20T12:10:41;100864.53;;;27.16;54.71
48553;BME280;34335;51.566;6.994;2023-07-20T12:13:10;100867.44;;;27.64;55.32
48553;BME280;34335;51.566;6.994;2023-07-20T12:15:36;100859.22;;;28.05;53.76
48553;BME280;34335;51.566;6.994;2023-07-20T12:18:02;100858.06;;;28.09;51.43
48553;BME280;34335;51.566;6.994;2023-07-20T12:20:32;100866.53;;;27.77;42.64
48553;BME280;34335;51.566;6.994;2023-07-20T12:23:08;100864.53;;;27.16;45.60
48553;BME280;34335;51.566;6.994;2023-07-20T12:25:37;100860.75;;;26.93;49.80
48553;BME280;34335;51.566;6.994;2023-07-20T12:28:06;100858.59;;;26.85;44.70
48553;BME280;34335;51.566;6.994;2023-07-20T12:30:31;100851.16;;;27.42;52.81
48553;BME280;34335;51.566;6.994;2023-07-20T12:32:57;100840.59;;;28.40;50.71
48553;BME280;34335;51.566;6.994;2023-07-20T12:35:22;100848.59;;;27.79;46.41
48553;BME280;34335;51.566;6.994;2023-07-20T12:37:47;100846.50;;;27.45;51.34
48553;BME280;34335;51.566;6.994;2023-07-20T12:40:33;100848.88;;;26.84;48.06
48553;BME280;34335;51.566;6.994;2023-07-20T12:42:59;100846.34;;;26.68;43.43
48553;BME280;34335;51.566;6.994;2023-07-20T12:45:24;100846.06;;;27.64;52.66
48553;BME280;34335;51.566;6.994;2023-07-20T12:47:49;100853.97;;;27.53;44.50
48553;BME280;34335;51.566;6.994;2023-07-20T12:50:15;100844.84;;;27.81;45.08
48553;BME280;34335;51.566;6.994;2023-07-20T12:52:40;100851.25;;;27.27;42.38
48553;BME280;34335;51.566;6.994;2023-07-20T12:55:07;100854.72;;;27.68;46.26
48553;BME280;34335;51.566;6.994;2023-07-20T12:57:34;100856.31;;;27.71;47.79